Time;durP1;ratioP1;P1;durP2;ratioP2;P2;SDS_P1;SDS_P2;PMS_P1;PMS_P2;Temp;Humidity;BMP_temperature;BMP_pressure;BME280_temperature;BME280_humidity;BME280_pressure;Samples;Min_cycle;Max_cycle;Signal;HPM_P1;HPM_P2
2024/01/09 07:26:44;;;;;;;15.90;5.97;;;;;;;-2.66;52.55;101894.16;4852432;24;20490;-66
2024/01/09 07:32:22;;;;;;;16.07;6.37;;;;;;;-2.47;52.43;101899.84;4820316;29;20480;-67
2024/01/09 07:35:25;;;;;;;13.70;5.70;;;;;;;-2.39;51.97;101899.69;4822919;29;20440;-67
2024/01/09 07:38:24;;;;;;;13.23;5.77;;;;;;;-2.28;51.96;101900.28;4824160;29;21095;-67
2024/01/09 07:41:17;;;;;;;15.83;6.00;;;;;;;-2.21;51.85;101901.91;4824573;29;20949;-68
2024/01/09 07:43:58;;;;;;;14.27;5.77;;;;;;;-2.16;51.64;101899.19;4824257;29;20480;-68
2024/01/09 07:46:43;;;;;;;;;;;;;;;;;;;;;
2024/01/09 07:50:03;;;;;;;13.80;5.73;;;;;;;-2.17;50.97;101906.13;4823594;29;20474;-67
2024/01/09 07:52:39;;;;;;;12.90;5.20;;;;;;;-2.13;51.24;101902.59;4792243;29;21188;-68
2024/01/09 07:55:34;;;;;;;39.97;9.40;;;;;;;-2.11;50.89;101907.75;4826555;29;20878;-67
2024/01/09 07:58:11;;;;;;;18.37;6.33;;;;;;;-2.12;51.60;101909.50;4824287;29;20468;-68
2024/01/09 08:00:56;;;;;;;15.87;5.70;;;;;;;-2.03;51.31;101911.91;4825001;29;20566;-67
2024/01/09 08:03:37;;;;;;;13.03;5.60;;;;;;;-1.97;51.08;101906.56;4829078;29;20477;-67
2024/01/09 08:09:28;;;;;;;10.90;5.20;;;;;;;-1.98;50.85;101909.19;5107017;27;20591;-66
2024/01/09 08:12:10;;;;;;;19.07;6.07;;;;;;;-2.01;51.03;101907.50;5090094;28;20465;-67
2024/01/09 08:14:53;;;;;;;16.17;5.83;;;;;;;-1.92;50.87;101909.91;5089530;28;20567;-66
2024/01/09 08:17:39;;;;;;;16.00;6.50;;;;;;;-1.82;50.70;101909.69;5089552;28;20432;-66
2024/01/09 08:20:16;;;;;;;17.77;6.40;;;;;;;-1.74;50.41;101908.63;5093221;28;21361;-66
2024/01/09 08:23:13;;;;;;;13.17;5.53;;;;;;;-1.72;49.97;101906.00;5088421;28;20452;-67
2024/01/09 08:26:50;;;;;;;11.97;5.43;;;;;;;-1.78;49.99;101916.56;5081487;28;20978;-66
2024/01/09 08:29:43;;;;;;;17.13;5.73;;;;;;;-1.78;50.08;101914.81;5069758;28;20488;-67
2024/01/09 08:32:42;;;;;;;13.27;5.53;;;;;;;-1.66;50.08;101921.47;5083205;28;21131;-67
2024/01/09 08:35:54;;;;;;;12.87;5.50;;;;;;;-1.55;50.05;101924.69;5082207;28;20454;-67
2024/01/09 08:38:46;;;;;;;11.63;5.50;;;;;;;-1.41;49.53;101920.03;5080026;28;20895;-66
2024/01/09 08:41:27;;;;;;;12.83;5.40;;;;;;;-1.24;49.39;101922.22;5074320;28;21026;-67
2024/01/09 08:44:58;;;;;;;14.97;5.73;;;;;;;-1.19;48.99;101922.94;5068872;28;21103;-66
2024/01/09 08:48:29;;;;;;;;;;;;;;;;;;;;;
2024/01/09 08:51:34;;;;;;;15.87;5.37;;;;;;;-1.18;48.42;101915.09;4953653;28;20901;-66
2024/01/09 08:54:16;;;;;;;15.30;5.77;;;;;;;-1.14;48.46;101908.03;5036782;28;20442;-66
2024/01/09 08:56:55;;;;;;;14.37;5.60;;;;;;;-1.11;48.32;101913.19;5084206;28;21038;-66
2024/01/09 08:59:36;;;;;;;11.57;5.67;;;;;;;-1.09;48.13;101905.34;5082176;28;20449;-67
2024/01/09 09:05:23;;;;;;;11.80;5.53;;;;;;;-1.03;48.05;101900.81;5068545;28;20507;-67
2024/01/09 09:08:04;;;;;;;13.53;5.23;;;;;;;-0.98;47.83;101909.38;5080223;28;20501;-66
2024/01/09 09:10:37;;;;;;;11.13;5.13;;;;;;;-0.96;47.92;101898.91;5075154;28;20469;-67
2024/01/09 09:13:10;;;;;;;12.17;5.47;;;;;;;-0.91;47.89;101895.31;5083592;28;20557;-67
2024/01/09 09:15:53;;;;;;;12.03;5.47;;;;;;;-0.99;47.58;101904.22;5080225;28;21243;-67
2024/01/09 09:18:28;;;;;;;10.80;4.87;;;;;;;-0.99;47.71;101906.81;5080254;28;20448;-67
2024/01/09 12:01:35;;;;;;;11.23;5.80;;;;;;;4.08;34.57;101764.75;4924190;28;20234;-68
2024/01/09 12:24:02;;;;;;;12.97;4.57;;;;;;;2.82;37.07;101741.81;4811005;29;20265;-68
2024/01/09 13:08:34;;;;;;;11.37;4.20;;;;;;;2.63;36.48;101689.41;4985077;28;20277;-68
2024/01/09 13:11:37;;;;;;;9.93;4.07;;;;;;;2.64;36.07;101693.72;5022578;28;20213;-71
2024/01/09 13:14:24;;;;;;;12.67;4.63;;;;;;;2.67;36.95;101687.50;5035808;28;20210;-68
2024/01/09 13:17:12;;;;;;;13.27;3.80;;;;;;;2.62;36.07;101685.09;5037633;28;20289;-69
2024/01/09 13:20:06;;;;;;;12.00;4.80;;;;;;;2.60;35.38;101688.69;5003478;28;20211;-68
2024/01/09 13:22:39;;;;;;;11.07;4.00;;;;;;;2.60;35.07;101688.69;5034507;28;20204;-68
2024/01/09 13:25:27;;;;;;;10.87;4.10;;;;;;;2.59;35.16;101687.84;5034398;28;20732;-69
2024/01/09 13:28:59;;;;;;;13.50;4.77;;;;;;;2.63;36.20;101692.03;5036776;28;20212;-71
2024/01/09 13:35:19;;;;;;;10.77;4.27;;;;;;;2.63;34.93;101686.81;5014253;28;20221;-69
2024/01/09 13:38:01;;;;;;;9.50;3.63;;;;;;;2.59;35.17;101687.00;5038102;28;20206;-68
2024/01/09 14:05:52;;;;;;;10.23;3.77;;;;;;;2.72;36.52;101685.53;4935196;28;20245;-68
2024/01/09 14:13:01;;;;;;;8.03;3.60;;;;;;;2.69;34.73;101683.03;4911043;29;20215;-69
2024/01/09 14:24:23;;;;;;;8.97;3.77;;;;;;;2.68;33.95;101676.09;4951577;28;20341;-69
2024/01/09 14:39:54;;;;;;;;;;;;;;;;;;;;;
2024/01/09 14:47:59;;;;;;;;;;;;;;;;;;;;;
2024/01/09 14:58:18;;;;;;;8.47;3.77;;;;;;;2.67;35.54;101663.06;4924540;28;20818;-68
2024/01/09 15:01:05;;;;;;;9.63;4.03;;;;;;;2.66;36.09;101656.97;5067392;28;20795;-69
2024/01/09 15:15:28;;;;;;;8.40;3.60;;;;;;;2.63;37.26;101668.47;5004481;28;20217;-71
2024/01/09 15:47:10;;;;;;;7.80;3.60;;;;;;;2.37;37.82;101673.16;4836986;29;20359;-69
2024/01/09 15:50:17;;;;;;;8.73;3.50;;;;;;;2.38;38.15;101680.91;4926738;28;20240;-71
2024/01/09 15:56:19;;;;;;;7.30;3.43;;;;;;;2.34;38.23;101687.22;5036317;28;20642;-69
2024/01/09 16:14:54;;;;;;;8.97;3.80;;;;;;;2.13;37.02;101693.34;4895695;29;20261;-69
2024/01/09 16:17:36;;;;;;;;;;;;;;;;;;;;;
2024/01/09 16:20:27;;;;;;;9.30;3.90;;;;;;;2.13;37.78;101701.19;4891098;29;20722;-68
2024/01/09 16:23:50;;;;;;;12.93;5.20;;;;;;;2.14;38.67;101700.28;4849543;29;20331;-70
2024/01/09 16:48:19;;;;;;;11.73;5.23;;;;;;;1.88;40.58;101720.53;4921160;29;20218;-70
2024/01/09 16:51:10;;;;;;;15.47;6.20;;;;;;;1.84;40.86;101718.97;4930683;28;20444;-70
2024/01/09 16:53:59;;;;;;;17.03;5.90;;;;;;;1.81;40.93;101728.69;4954560;28;20338;-68
2024/01/09 16:57:08;;;;;;;16.10;6.10;;;;;;;1.76;41.24;101728.88;4954268;28;20266;-70
2024/01/09 18:02:16;;;;;;;13.83;6.10;;;;;;;0.98;42.73;101728.41;4869766;29;20770;-69
2024/01/09 18:14:53;;;;;;;14.77;6.40;;;;;;;0.92;42.49;101730.41;4762015;29;20219;-69
2024/01/09 18:17:59;;;;;;;12.80;6.27;;;;;;;0.89;42.30;101728.75;4835674;29;20221;-68
2024/01/09 18:21:34;;;;;;;14.77;6.17;;;;;;;0.97;42.35;101731.94;4834632;29;20226;-70
2024/01/09 18:32:19;;;;;;;18.40;6.60;;;;;;;0.86;42.45;101728.88;4873657;29;20710;-68
2024/01/09 18:42:23;;;;;;;15.53;6.10;;;;;;;0.87;42.59;101741.03;4939210;28;20385;-69
